createdAt,value
2017-06-09T05:44:57.326Z,1014.748
2017-06-09T05:47:40.915Z,1014.748
2017-06-09T05:56:25.153Z,1014.730
2017-06-09T06:07:03.627Z,1014.929
2017-06-09T06:09:47.371Z,1014.967
2017-06-09T06:12:41.438Z,1014.946
2017-06-09T06:15:36.115Z,1014.921
2017-06-09T06:19:50.010Z,1014.901
2017-06-09T06:22:35.429Z,1014.864
2017-06-09T06:31:09.124Z,1014.851
2017-06-09T06:33:53.279Z,1014.799
2017-06-09T06:36:47.548Z,1014.746
2017-06-09T06:39:42.493Z,1014.708
2017-06-09T06:42:37.588Z,1014.685
2017-06-09T06:45:32.585Z,1014.698
2017-06-09T06:48:27.699Z,1014.689
2017-06-09T06:51:22.911Z,1014.703
2017-06-09T06:54:18.274Z,1014.689
2017-06-09T06:57:13.618Z,1014.681
2017-06-09T07:00:08.919Z,1014.721
2017-06-09T07:03:04.224Z,1014.699
2017-06-09T07:05:59.456Z,1014.703
2017-06-09T07:08:54.744Z,1014.727
2017-06-09T07:11:50.029Z,1014.741
2017-06-09T07:14:45.322Z,1014.754
2017-06-09T07:17:40.628Z,1014.727
2017-06-09T07:20:35.948Z,1014.691
2017-06-09T07:23:31.291Z,1014.644
2017-06-09T07:29:21.998Z,1014.535
2017-06-09T07:32:17.354Z,1014.495
2017-06-09T07:35:12.666Z,1014.487
2017-06-09T07:38:08.073Z,1014.481
2017-06-09T07:41:03.377Z,1014.451
2017-06-09T07:43:58.633Z,1014.340
2017-06-09T07:46:54.009Z,1014.261
2017-06-09T07:49:49.288Z,1014.211
2017-06-09T07:52:44.596Z,1014.120
2017-06-09T07:55:39.987Z,1014.050
2017-06-09T08:01:30.969Z,1014.020
2017-06-09T08:04:26.373Z,1014.023
2017-06-09T08:07:21.924Z,1014.075
2017-06-09T08:16:08.654Z,1014.055
2017-06-09T08:19:04.316Z,1014.050
2017-06-09T08:22:00.082Z,1014.082
2017-06-09T08:24:55.788Z,1014.021
2017-06-09T08:27:51.426Z,1013.988
2017-06-09T08:30:47.109Z,1013.985
2017-06-09T08:33:42.825Z,1013.941
2017-06-09T08:36:38.441Z,1013.906
2017-06-09T08:39:34.336Z,1013.907
2017-06-09T08:45:25.929Z,1013.873
2017-06-09T08:48:21.995Z,1013.861
2017-06-09T08:51:17.961Z,1013.807
2017-06-09T08:54:13.775Z,1013.709
2017-06-09T08:57:09.658Z,1013.728
2017-06-09T09:00:05.268Z,1013.718
2017-06-09T09:03:01.022Z,1013.651
2017-06-09T09:05:56.105Z,1013.674
2017-06-09T09:11:47.315Z,1013.615
2017-06-09T09:14:43.421Z,1013.592
2017-06-09T09:17:39.546Z,1013.618
2017-06-09T09:20:35.677Z,1013.589
2017-06-09T09:26:28.185Z,1013.586
2017-06-09T09:29:24.141Z,1013.543
2017-06-09T09:32:20.184Z,1013.490
2017-06-09T09:35:16.168Z,1013.466
2017-06-09T09:38:12.145Z,1013.381
2017-06-09T09:41:08.357Z,1013.387
2017-06-09T09:44:04.862Z,1013.257
2017-06-09T09:47:01.313Z,1013.243
2017-06-09T09:49:57.665Z,1013.109
2017-06-09T09:52:54.047Z,1013.107
2017-06-09T09:55:50.484Z,1013.090
2017-06-09T09:58:47.072Z,1013.075
2017-06-09T10:01:43.550Z,1013.043
2017-06-09T10:04:40.123Z,1012.970
2017-06-09T10:07:36.587Z,1012.955
2017-06-09T10:10:32.963Z,1012.969
2017-06-09T10:16:25.592Z,1012.940
2017-06-09T10:19:21.774Z,1012.882
2017-06-09T10:22:18.124Z,1012.792
2017-06-09T10:25:14.557Z,1012.761
2017-06-09T10:28:10.707Z,1012.635
2017-06-09T10:31:06.447Z,1012.635
2017-06-09T10:34:02.120Z,1012.611
2017-06-09T10:36:57.767Z,1012.557
2017-06-09T10:39:53.426Z,1012.490
2017-06-09T10:42:49.050Z,1012.516
2017-06-09T10:45:44.748Z,1012.647
2017-06-09T10:48:40.317Z,1012.504
2017-06-09T10:51:36.042Z,1012.518
2017-06-09T10:54:31.595Z,1012.559
2017-06-09T10:57:27.297Z,1012.489
2017-06-09T11:00:22.928Z,1012.397
2017-06-09T11:03:18.592Z,1012.354
2017-06-09T11:06:14.152Z,1012.298
2017-06-09T11:09:09.706Z,1012.275
2017-06-09T11:15:01.031Z,1012.272
2017-06-09T11:17:56.700Z,1012.180
2017-06-09T11:20:52.474Z,1012.118
2017-06-09T11:23:48.020Z,1012.106
2017-06-09T11:26:43.725Z,1012.124
2017-06-09T11:29:39.454Z,1012.012
2017-06-09T11:32:35.071Z,1012.032
2017-06-09T11:35:30.704Z,1011.976
2017-06-09T11:38:26.225Z,1011.972
2017-06-09T11:41:21.845Z,1011.939
2017-06-09T11:44:17.359Z,1011.839
2017-06-09T11:47:12.984Z,1011.850
2017-06-09T11:50:08.683Z,1011.845
2017-06-09T11:53:04.194Z,1011.862
2017-06-09T11:55:59.985Z,1011.747
2017-06-09T12:01:51.365Z,1011.671
2017-06-09T12:07:42.595Z,1011.576
2017-06-09T12:10:38.062Z,1011.560
2017-06-09T12:13:33.830Z,1011.491
2017-06-09T12:19:25.108Z,1011.543
2017-06-09T12:22:20.805Z,1011.535
2017-06-09T12:25:16.303Z,1011.451
2017-06-09T12:28:11.925Z,1011.466
2017-06-09T12:31:07.688Z,1011.440
2017-06-09T12:34:03.351Z,1011.422
2017-06-09T12:36:58.996Z,1011.409
2017-06-09T12:39:54.702Z,1011.402
2017-06-09T12:42:50.311Z,1011.325
2017-06-09T12:45:46.040Z,1011.364
2017-06-09T12:48:41.865Z,1011.267
2017-06-09T12:51:37.438Z,1011.275
2017-06-09T12:57:28.780Z,1011.285
2017-06-09T13:00:24.381Z,1011.190
2017-06-09T13:03:20.060Z,1011.257
2017-06-09T13:06:15.697Z,1011.213
2017-06-09T13:09:11.336Z,1011.137
2017-06-09T13:12:06.998Z,1011.179
2017-06-09T13:17:58.295Z,1011.175
2017-06-09T13:20:53.846Z,1011.142
2017-06-09T13:23:49.401Z,1011.071
2017-06-09T13:26:45.244Z,1010.990
2017-06-09T13:29:41.005Z,1010.978
2017-06-09T13:35:32.459Z,1010.845
2017-06-09T13:38:28.116Z,1010.880
2017-06-09T13:41:23.766Z,1010.915
2017-06-09T13:44:19.377Z,1010.959
2017-06-09T13:50:10.665Z,1010.892
2017-06-09T13:53:06.398Z,1010.849
2017-06-09T13:56:02.054Z,1010.836
2017-06-09T13:58:57.733Z,1010.885
2017-06-09T14:01:53.500Z,1010.912
2017-06-09T14:04:49.280Z,1010.835
2017-06-09T14:07:44.992Z,1010.879
2017-06-09T14:10:40.643Z,1010.853
2017-06-09T14:13:36.426Z,1010.795
2017-06-09T14:16:32.175Z,1010.781
2017-06-09T14:19:27.782Z,1010.814
2017-06-09T14:22:23.544Z,1010.752
2017-06-09T14:25:19.296Z,1010.750
2017-06-09T14:31:10.743Z,1010.657
2017-06-09T14:37:02.068Z,1010.608
2017-06-09T14:39:57.713Z,1010.547
2017-06-09T14:42:53.368Z,1010.448
2017-06-09T14:45:49.185Z,1010.401
2017-06-09T14:48:44.735Z,1010.425
2017-06-09T14:51:40.404Z,1010.409
2017-06-09T14:54:36.242Z,1010.522
2017-06-09T14:57:31.963Z,1010.497
2017-06-09T15:00:27.833Z,1010.482
2017-06-09T15:06:19.178Z,1010.482
2017-06-09T15:09:14.908Z,1010.430
2017-06-09T15:12:10.668Z,1010.421
2017-06-09T15:15:06.435Z,1010.413
2017-06-09T15:18:02.100Z,1010.389
2017-06-09T15:23:53.470Z,1010.318
2017-06-09T15:26:49.236Z,1010.357
2017-06-09T15:29:44.935Z,1010.337
2017-06-09T15:32:40.627Z,1010.346
2017-06-09T15:35:36.388Z,1010.282
2017-06-09T15:38:32.145Z,1010.267
2017-06-09T15:41:27.770Z,1010.274
2017-06-09T15:44:23.448Z,1010.296
2017-06-09T15:47:19.166Z,1010.242
2017-06-09T15:50:14.946Z,1010.363
2017-06-09T15:53:10.486Z,1010.357
2017-06-09T15:56:06.260Z,1010.395
2017-06-09T16:01:57.677Z,1010.386
2017-06-09T16:04:53.292Z,1010.345
2017-06-09T16:07:48.977Z,1010.378
2017-06-09T16:10:44.616Z,1010.376
2017-06-09T16:13:40.331Z,1010.320
2017-06-09T16:16:36.040Z,1010.320
2017-06-09T16:19:31.633Z,1010.308
2017-06-09T16:22:27.337Z,1010.293
2017-06-09T16:25:23.082Z,1010.305
2017-06-09T16:28:18.743Z,1010.278
2017-06-09T16:31:14.406Z,1010.285
2017-06-09T16:34:10.037Z,1010.245
2017-06-09T16:37:05.678Z,1010.244
2017-06-09T16:40:01.241Z,1010.240
2017-06-09T16:42:57.014Z,1010.267
2017-06-09T16:45:52.482Z,1010.270
2017-06-09T16:51:43.884Z,1010.321
2017-06-09T16:54:39.689Z,1010.351
2017-06-09T16:57:35.301Z,1010.361
2017-06-09T17:00:30.907Z,1010.369
2017-06-09T17:03:26.632Z,1010.378
2017-06-09T17:09:17.941Z,1010.424
2017-06-09T17:12:13.634Z,1010.695
2017-06-09T17:15:09.237Z,1010.904
2017-06-09T17:18:04.931Z,1010.868
2017-06-09T17:21:00.461Z,1010.981
2017-06-09T17:23:56.052Z,1011.158
2017-06-09T17:29:46.996Z,1011.457
2017-06-09T17:32:42.527Z,1011.617
2017-06-09T17:35:38.002Z,1011.807
2017-06-09T17:38:33.504Z,1012.008
2017-06-09T17:41:28.968Z,1012.195
2017-06-09T17:47:19.790Z,1012.271
2017-06-09T17:50:15.167Z,1012.387
2017-06-09T17:56:06.024Z,1012.567
2017-06-09T18:01:56.552Z,1012.745
2017-06-09T18:04:51.835Z,1012.864
2017-06-09T18:07:47.173Z,1012.937
2017-06-09T18:10:42.317Z,1013.025
2017-06-09T18:13:37.541Z,1012.960
2017-06-09T18:16:32.974Z,1013.076
2017-06-09T18:19:28.250Z,1013.059
2017-06-09T18:22:23.502Z,1013.055
2017-06-09T18:25:18.782Z,1013.151
2017-06-09T18:28:13.886Z,1013.223
2017-06-09T18:32:28.144Z,1013.458
